HPP weather

Cabo de Peñas Heliport
Huixquilucan, México (state), Mexico

Public forecast

Using degrees Celsius for public forecast. Weather courtesy of forecast.io.

Closest aviation weather report (METAR) to Cabo de Peñas Heliport

Closest report is Licenciado Benito Juarez International Airport, 11.7 nm (21.6 km) E. Retrieved 2019/12/08 01:45 UTC (56 minutes ago):

MMMX 080145Z 08006KT 7SM SKC 18/04 A3041 NOSIG RMK HZY

Closest aviation forecast (TAF) to Cabo de Peñas Heliport

Closest forecast is Licenciado Benito Juarez International Airport, 11.7 nm (21.6 km) E. Retrieved 2019-12-08 00:12 UTC (2 hours ago):

TAF MMMX 072304Z 0800/0906 04005KT 6SM HZ SKC TX24/0822Z TN07/0813Z BECMG 0802/0803 00000KT FM081000 00000KT 5SM HZ SKC TEMPO 0811/0815 3SM BR HZ SCT020 FM081600 03005KT 6SM HZ SKC BECMG 0820/0821 03008KT FM090200 00000KT P6SM SKC